Pagrindinis puslapis
METAR-TAF:

METAR-TAF

Oro uostai :

Singapūras, Singapūras

platuma: 01-22N, ilguma: 103-59E, Aukštis: 5 m

Dabartinis oras

Ataskaita buvo paskelbta 22 minutes, ne 01:00 UTC
Vėjas 8 kt iš Šiaurės
Temperatūra 26°C
Drėgmė 84%
Slėgis 1009 hPa
Matomumas 10 km arba daugiau
Mažai debesys ne aukštis 2000 ft
Su prošvaistėmis ne aukštis 30000 ft

METAR: WSSS 260100Z 35008KT 9999 FEW020 BKN300 26/23 Q1009 NOSIG

Laikas: 09:22 (01:22 UTC)

Prognozė

Ataskaita buvo paskelbta 2 valandos ir 22 minutes, ne 23:00 UTC
Prognozė galioja nuo 26 metu 00 UTC su 27 metu 06 UTC
Vėjas 10 kt iš Šiaurės
Matomumas 10 km arba daugiau
Mažai debesys ne aukštis 1500 ft

TAF: WSSS 252300Z 2600/2706 35010KT 9999 FEW015

Orai ataskaitas ir orų prognozės (METAR, TAF).

turimą stotys yra geltonos ir raudonos taškus žemėlapyje.

Perkelti pele per norėdami pamatyti stoties vardą.

Tada spustelėkite, norėdami matyti oro stebėjimo ir prognozės.

Norėdami pakeisti žemėlapį: spustelėkite ant žalios mygtukų su juodo kryžiaus žemyn,; žalią mygtuką su brūkšneliu, jei norite nutolinti; arba žalių rodyklių gretimoms žemėlapius.


METAR-TAF: